Time;durP1;ratioP1;P1;durP2;ratioP2;P2;SDS_P1;SDS_P2;PMS_P1;PMS_P2;Temp;Humidity;BMP_temperature;BMP_pressure;BME280_temperature;BME280_humidity;BME280_pressure;Samples;Min_cycle;Max_cycle;Signal;HPM_P1;HPM_P2
2022/05/29 00:01:07;;;;;;;2.88;1.50;;;11.30;86.70;;;;;;4939798;28;20035;-72
2022/05/29 00:03:32;;;;;;;4.78;1.27;;;11.30;86.50;;;;;;4943778;28;20034;-72
2022/05/29 00:05:58;;;;;;;4.35;1.63;;;11.40;86.50;;;;;;4942649;28;20032;-72
2022/05/29 00:08:32;;;;;;;5.22;1.45;;;11.30;86.00;;;;;;4947144;28;20070;-72
2022/05/29 00:10:59;;;;;;;5.38;1.73;;;11.40;86.00;;;;;;4935210;28;20066;-72
2022/05/29 00:13:26;;;;;;;6.97;1.45;;;11.50;85.80;;;;;;4940399;28;20490;-72
2022/05/29 00:15:52;;;;;;;7.18;1.60;;;11.50;85.30;;;;;;4940029;28;20035;-73
2022/05/29 00:18:18;;;;;;;6.20;1.65;;;11.50;85.10;;;;;;4937884;28;20526;-72
2022/05/29 00:20:48;;;;;;;3.47;1.30;;;11.60;85.00;;;;;;4939587;28;20028;-73
2022/05/29 00:23:14;;;;;;;4.95;1.42;;;11.60;84.30;;;;;;4938558;28;20078;-72
2022/05/29 00:25:43;;;;;;;4.30;1.27;;;11.70;83.50;;;;;;4946370;28;20787;-73
2022/05/29 00:28:08;;;;;;;5.57;1.75;;;11.70;83.20;;;;;;4943119;28;20066;-72
2022/05/29 00:30:34;;;;;;;8.57;1.75;;;11.80;82.80;;;;;;4940729;28;20055;-73
2022/05/29 00:33:00;;;;;;;2.28;1.05;;;11.80;82.70;;;;;;4938604;28;20036;-73
2022/05/29 00:35:25;;;;;;;4.13;1.50;;;11.80;82.40;;;;;;4934238;28;20447;-73
2022/05/29 00:37:51;;;;;;;1.90;1.00;;;11.80;82.70;;;;;;4934635;28;20061;-73
2022/05/29 00:40:36;;;;;;;5.93;1.60;;;11.80;82.80;;;;;;4934553;28;20027;-73
2022/05/29 00:43:02;;;;;;;4.68;1.45;;;11.90;83.10;;;;;;4939423;28;20687;-73
2022/05/29 00:45:31;;;;;;;5.82;1.30;;;11.90;82.70;;;;;;4941577;28;20024;-72
2022/05/29 00:47:57;;;;;;;4.35;1.40;;;11.90;82.00;;;;;;4941777;28;20034;-73
2022/05/29 00:50:24;;;;;;;1.77;0.98;;;11.80;83.00;;;;;;4937113;28;20039;-73
2022/05/29 00:52:50;;;;;;;6.55;1.77;;;11.80;83.00;;;;;;4939980;28;20150;-73
2022/05/29 00:55:21;;;;;;;6.53;1.40;;;11.80;82.70;;;;;;4935040;28;20043;-72
2022/05/29 00:57:54;;;;;;;6.35;1.02;;;11.80;82.90;;;;;;4935409;28;20034;-72
2022/05/29 01:00:26;;;;;;;6.80;1.38;;;11.80;82.60;;;;;;4936838;28;20058;-72
2022/05/29 01:02:59;;;;;;;7.45;1.30;;;11.80;81.40;;;;;;4940641;28;20111;-72
2022/05/29 01:05:26;;;;;;;5.43;1.45;;;11.90;81.00;;;;;;4934584;28;20664;-72
2022/05/29 01:08:10;;;;;;;6.00;1.60;;;11.90;81.10;;;;;;4935060;28;20039;-72
2022/05/29 01:10:52;;;;;;;5.63;1.10;;;11.90;81.00;;;;;;4935305;28;20023;-73
2022/05/29 01:13:38;;;;;;;4.82;1.30;;;11.90;80.40;;;;;;4933039;28;20043;-73
2022/05/29 01:16:33;;;;;;;8.30;2.10;;;11.90;80.10;;;;;;4933674;28;20049;-72
2022/05/29 01:19:44;;;;;;;5.85;1.30;;;11.90;79.50;;;;;;4943209;28;20038;-72
2022/05/29 01:22:17;;;;;;;6.60;1.20;;;11.90;79.90;;;;;;4929494;28;20050;-72
2022/05/29 01:25:09;;;;;;;4.25;1.15;;;11.90;80.30;;;;;;4936131;28;20035;-71
2022/05/29 01:28:06;;;;;;;3.70;1.00;;;11.90;80.30;;;;;;4948283;28;20121;-71
2022/05/29 01:30:38;;;;;;;6.80;1.40;;;11.90;80.60;;;;;;4936402;28;20042;-72
2022/05/29 01:33:04;;;;;;;12.02;1.65;;;11.90;80.40;;;;;;4933878;28;20043;-72
2022/05/29 01:35:44;;;;;;;6.88;1.52;;;11.90;79.80;;;;;;4934517;28;20810;-72
2022/05/29 01:38:28;;;;;;;6.13;1.20;;;11.90;79.70;;;;;;4939520;28;20091;-72
2022/05/29 01:40:56;;;;;;;8.77;1.50;;;11.90;79.50;;;;;;4939078;28;20031;-72
2022/05/29 01:43:31;;;;;;;4.60;1.45;;;11.90;79.70;;;;;;4939460;28;20125;-72
2022/05/29 01:46:30;;;;;;;8.32;1.80;;;11.90;79.90;;;;;;4934684;28;20030;-72
2022/05/29 01:49:13;;;;;;;4.18;1.42;;;11.90;79.80;;;;;;4912094;28;20059;-72
2022/05/29 01:51:58;;;;;;;4.53;1.50;;;11.90;79.90;;;;;;4933485;28;20487;-72
2022/05/29 01:54:36;;;;;;;4.38;1.52;;;11.90;80.00;;;;;;4934335;28;20529;-72
2022/05/29 01:57:17;;;;;;;9.20;1.80;;;11.90;80.00;;;;;;4937305;28;20035;-72
2022/05/29 01:59:55;;;;;;;4.30;1.58;;;11.90;80.00;;;;;;4948289;28;20075;-72
2022/05/29 02:02:28;;;;;;;4.72;1.40;;;11.80;80.40;;;;;;4955226;28;20031;-72
2022/05/29 02:04:56;;;;;;;5.55;1.60;;;11.80;80.40;;;;;;4937735;28;20122;-72
2022/05/29 02:10:34;;;;;;;4.43;1.35;;;11.90;80.10;;;;;;4947512;28;20133;-71
2022/05/29 02:13:21;;;;;;;4.78;1.45;;;11.90;80.00;;;;;;4942528;28;20027;-72
2022/05/29 02:16:11;;;;;;;7.35;1.60;;;11.80;80.30;;;;;;4946185;28;20035;-72
2022/05/29 02:18:55;;;;;;;4.63;1.30;;;11.90;80.40;;;;;;4946768;28;20038;-72
2022/05/29 02:21:37;;;;;;;12.60;2.10;;;11.80;80.10;;;;;;4943666;28;20161;-72
2022/05/29 02:24:10;;;;;;;6.05;1.23;;;11.80;80.10;;;;;;4943217;28;20038;-72
2022/05/29 02:26:46;;;;;;;4.47;1.30;;;11.80;80.20;;;;;;4946609;28;20071;-71
2022/05/29 02:29:14;;;;;;;5.13;1.63;;;11.80;80.80;;;;;;4940596;28;20146;-72
2022/05/29 02:32:07;;;;;;;6.40;1.48;;;11.80;80.50;;;;;;4948181;28;20082;-72
2022/05/29 02:34:35;;;;;;;5.07;1.63;;;11.80;80.70;;;;;;4946038;28;20062;-72
2022/05/29 02:37:21;;;;;;;4.18;1.23;;;11.80;81.00;;;;;;4945343;28;20033;-72
2022/05/29 02:40:05;;;;;;;5.85;1.60;;;11.80;81.10;;;;;;4953938;28;20033;-72
2022/05/29 02:43:05;;;;;;;4.80;1.80;;;11.80;81.10;;;;;;4940255;28;20063;-72
2022/05/29 02:45:44;;;;;;;5.30;1.40;;;11.80;81.20;;;;;;4941901;28;20031;-73
2022/05/29 02:48:35;;;;;;;4.00;1.30;;;11.80;81.30;;;;;;4940881;28;20131;-73
2022/05/29 02:51:14;;;;;;;5.20;1.90;;;11.80;81.50;;;;;;4939233;28;20678;-72
2022/05/29 02:53:45;;;;;;;3.40;1.35;;;11.80;81.70;;;;;;4948057;28;20121;-71
2022/05/29 02:56:11;;;;;;;4.00;1.42;;;11.80;82.20;;;;;;4943059;28;20083;-72
2022/05/29 02:58:39;;;;;;;4.50;1.30;;;11.80;82.10;;;;;;4947099;28;20038;-72
2022/05/29 03:01:12;;;;;;;8.98;1.65;;;11.70;82.20;;;;;;4945227;28;20058;-73
2022/05/29 03:03:59;;;;;;;2.65;1.10;;;11.70;82.30;;;;;;4943768;28;20388;-72
2022/05/29 03:06:52;;;;;;;4.32;1.30;;;11.70;82.60;;;;;;4936446;28;20043;-72
2022/05/29 03:09:33;;;;;;;6.15;1.33;;;11.70;82.90;;;;;;4941218;28;20558;-73
2022/05/29 03:11:59;;;;;;;8.77;1.58;;;11.70;82.60;;;;;;4952837;28;20026;-72
2022/05/29 03:14:43;;;;;;;5.57;1.23;;;11.70;82.50;;;;;;4942856;28;20047;-72
2022/05/29 03:17:15;;;;;;;5.75;1.48;;;11.70;82.50;;;;;;4925275;28;20205;-72
2022/05/29 03:20:08;;;;;;;5.00;1.42;;;11.70;82.80;;;;;;4929912;28;20028;-71
2022/05/29 03:22:40;;;;;;;7.05;1.38;;;11.70;83.40;;;;;;4931448;28;20035;-73
2022/05/29 03:25:16;;;;;;;3.00;1.38;;;11.70;83.40;;;;;;4938637;28;20094;-72
2022/05/29 03:27:45;;;;;;;3.80;1.48;;;11.70;83.20;;;;;;4941887;28;20034;-72
2022/05/29 03:30:29;;;;;;;8.23;1.35;;;11.80;83.30;;;;;;4920061;28;20043;-72
2022/05/29 03:32:58;;;;;;;6.30;1.75;;;11.70;83.30;;;;;;4924363;29;20054;-72
2022/05/29 03:35:34;;;;;;;5.70;2.05;;;11.80;83.20;;;;;;4942901;28;20043;-72
2022/05/29 03:38:03;;;;;;;4.30;1.15;;;11.80;82.70;;;;;;4942023;28;20031;-72
2022/05/29 03:40:31;;;;;;;4.78;1.30;;;11.80;83.00;;;;;;4936321;28;20042;-72
2022/05/29 03:42:57;;;;;;;10.02;1.77;;;11.80;82.90;;;;;;4949507;28;20031;-72
2022/05/29 03:45:24;;;;;;;4.10;1.33;;;11.80;82.80;;;;;;4943179;28;20115;-72
2022/05/29 03:47:50;;;;;;;5.10;1.50;;;11.80;82.40;;;;;;4945681;28;20074;-72
2022/05/29 03:50:18;;;;;;;3.55;1.40;;;11.80;82.90;;;;;;4935540;28;20123;-72
2022/05/29 03:52:45;;;;;;;5.78;1.60;;;11.90;83.10;;;;;;4947716;28;20315;-72
2022/05/29 03:55:12;;;;;;;6.75;1.63;;;11.90;83.20;;;;;;4944444;28;20074;-72
2022/05/29 03:57:39;;;;;;;7.43;1.40;;;11.90;83.20;;;;;;4947737;28;20063;-72
2022/05/29 04:00:07;;;;;;;4.63;2.00;;;11.90;82.90;;;;;;4936117;28;20155;-72
2022/05/29 04:02:39;;;;;;;6.93;1.65;;;12.00;82.90;;;;;;4945641;28;20118;-72
2022/05/29 04:05:05;;;;;;;5.65;1.70;;;12.10;82.90;;;;;;4936865;28;20036;-72
2022/05/29 04:13:00;;;;;;;6.07;1.55;;;12.20;82.30;;;;;;4942834;28;20046;-72
2022/05/29 04:15:27;;;;;;;5.78;1.80;;;12.20;82.10;;;;;;4948876;28;20035;-72
2022/05/29 04:17:53;;;;;;;8.43;1.88;;;12.30;81.80;;;;;;4937101;28;20031;-73
2022/05/29 04:20:19;;;;;;;5.25;1.50;;;12.40;81.70;;;;;;4947157;28;20042;-71
2022/05/29 04:22:44;;;;;;;4.15;1.33;;;12.40;81.80;;;;;;4943617;28;20031;-72
2022/05/29 04:25:10;;;;;;;7.88;1.50;;;12.50;81.50;;;;;;4947712;28;20085;-72
2022/05/29 04:27:36;;;;;;;3.22;1.35;;;12.50;81.50;;;;;;4943896;28;20070;-72
2022/05/29 04:30:03;;;;;;;10.85;2.03;;;12.50;80.80;;;;;;4928651;28;20061;-71
2022/05/29 04:35:14;;;;;;;5.50;1.70;;;12.70;80.80;;;;;;4937350;28;20040;-71
2022/05/29 04:37:39;;;;;;;6.38;1.42;;;12.70;80.70;;;;;;4929640;28;20050;-72
2022/05/29 04:40:06;;;;;;;7.38;1.60;;;12.70;80.80;;;;;;4949871;28;20061;-72
2022/05/29 04:42:31;;;;;;;8.70;1.70;;;12.70;80.60;;;;;;4933888;28;20027;-72
2022/05/29 04:44:57;;;;;;;4.45;1.45;;;12.80;80.60;;;;;;4947837;28;20161;-72
2022/05/29 04:47:23;;;;;;;6.25;1.98;;;12.90;80.40;;;;;;4939563;28;20030;-72
2022/05/29 04:49:48;;;;;;;11.85;2.50;;;13.00;80.40;;;;;;4945542;28;20507;-72
2022/05/29 04:52:14;;;;;;;8.63;2.13;;;13.00;80.00;;;;;;4943581;28;20039;-72
2022/05/29 04:54:40;;;;;;;8.77;2.20;;;13.10;79.80;;;;;;4928002;29;20035;-72
2022/05/29 04:57:08;;;;;;;11.02;2.17;;;13.10;79.10;;;;;;4940686;28;20800;-72
2022/05/29 04:59:35;;;;;;;6.47;1.60;;;13.10;79.50;;;;;;4950703;28;20083;-72
2022/05/29 05:02:03;;;;;;;6.72;1.67;;;13.20;79.20;;;;;;4939833;28;20035;-72
2022/05/29 05:04:29;;;;;;;5.40;1.67;;;13.20;79.20;;;;;;4946519;28;20133;-73
2022/05/29 05:06:58;;;;;;;6.50;1.77;;;13.30;79.20;;;;;;4946794;28;20046;-72
2022/05/29 05:09:24;;;;;;;4.65;1.42;;;13.50;79.20;;;;;;4952412;28;20059;-72
2022/05/29 05:11:52;;;;;;;11.07;1.67;;;13.70;78.70;;;;;;4943494;28;20035;-73
2022/05/29 05:14:20;;;;;;;12.82;2.10;;;13.80;77.60;;;;;;4950487;28;20059;-72
2022/05/29 05:16:46;;;;;;;7.07;2.28;;;13.80;77.40;;;;;;4947857;28;20054;-73
2022/05/29 05:19:13;;;;;;;5.65;1.75;;;13.80;77.70;;;;;;4945805;28;20049;-73
2022/05/29 05:21:38;;;;;;;6.85;2.10;;;13.80;77.50;;;;;;4945583;28;20031;-72
2022/05/29 05:24:05;;;;;;;4.70;1.85;;;13.90;77.30;;;;;;4946515;28;20152;-73
2022/05/29 05:26:31;;;;;;;8.25;1.95;;;14.00;76.70;;;;;;4944695;28;20058;-72
2022/05/29 05:28:57;;;;;;;7.25;2.10;;;14.00;76.50;;;;;;4941105;28;20487;-72
2022/05/29 05:31:22;;;;;;;6.35;2.13;;;14.10;76.80;;;;;;4940797;28;20059;-73
2022/05/29 05:33:48;;;;;;;8.60;1.50;;;14.40;76.10;;;;;;4947449;28;20039;-73
2022/05/29 05:36:15;;;;;;;6.18;1.63;;;14.60;75.40;;;;;;4943249;28;20043;-73
2022/05/29 05:38:41;;;;;;;6.72;2.05;;;14.70;74.50;;;;;;4946460;28;20033;-72
2022/05/29 05:41:10;;;;;;;8.07;1.60;;;14.80;73.40;;;;;;4945881;28;20028;-72
2022/05/29 05:43:36;;;;;;;8.30;2.20;;;14.90;73.90;;;;;;4940731;28;20031;-73
2022/05/29 05:46:05;;;;;;;9.25;2.08;;;15.10;73.90;;;;;;4938569;28;20333;-73
2022/05/29 05:48:31;;;;;;;8.50;1.90;;;15.20;72.90;;;;;;4945712;28;20126;-73
2022/05/29 05:50:57;;;;;;;3.22;1.83;;;15.40;72.60;;;;;;4941887;28;20050;-73
2022/05/29 05:53:24;;;;;;;11.55;2.72;;;15.60;71.60;;;;;;4944432;28;20043;-72
2022/05/29 05:55:50;;;;;;;5.68;1.77;;;15.60;70.80;;;;;;4950048;28;20070;-72
2022/05/29 05:58:16;;;;;;;9.88;2.28;;;15.60;70.90;;;;;;4945977;28;20145;-73
2022/05/29 06:00:46;;;;;;;5.25;1.75;;;15.50;70.90;;;;;;4946865;28;20039;-72
2022/05/29 06:03:12;;;;;;;5.20;1.80;;;15.50;71.60;;;;;;4945222;28;20741;-72
2022/05/29 06:05:37;;;;;;;6.97;2.25;;;15.50;72.00;;;;;;4940206;28;20038;-72
2022/05/29 06:08:04;;;;;;;5.45;1.95;;;15.50;72.00;;;;;;4940042;28;20097;-72
2022/05/29 06:10:29;;;;;;;9.00;1.85;;;15.60;71.60;;;;;;4944960;28;20023;-72
2022/05/29 06:12:59;;;;;;;7.45;2.33;;;15.40;71.30;;;;;;4942831;28;20051;-72
2022/05/29 06:15:25;;;;;;;9.32;2.22;;;15.20;70.80;;;;;;4946967;28;20035;-72
2022/05/29 06:17:51;;;;;;;6.90;1.73;;;15.00;71.90;;;;;;4930072;29;20054;-72
2022/05/29 06:20:17;;;;;;;10.60;2.85;;;14.80;72.60;;;;;;4939486;28;20040;-71
2022/05/29 06:22:42;;;;;;;6.32;2.13;;;14.70;73.40;;;;;;4948524;28;20038;-73
2022/05/29 06:25:10;;;;;;;9.95;1.98;;;14.80;73.90;;;;;;4945584;28;20204;-74
2022/05/29 06:27:43;;;;;;;6.25;1.70;;;15.00;73.60;;;;;;4947831;28;20118;-74
2022/05/29 06:30:12;;;;;;;8.82;2.03;;;15.50;72.50;;;;;;4955873;28;20042;-74
2022/05/29 06:32:38;;;;;;;7.32;1.90;;;16.20;68.60;;;;;;4950959;28;20027;-74
2022/05/29 06:35:07;;;;;;;7.97;2.05;;;16.50;67.30;;;;;;4958895;28;20450;-73
2022/05/29 06:37:33;;;;;;;5.28;1.90;;;16.50;67.00;;;;;;4950309;28;20190;-73
2022/05/29 06:39:59;;;;;;;3.75;1.80;;;16.50;67.00;;;;;;4940789;28;20035;-73
2022/05/29 06:42:26;;;;;;;4.90;1.40;;;16.30;67.10;;;;;;4944186;28;20134;-73
2022/05/29 06:44:52;;;;;;;11.38;1.70;;;16.10;67.80;;;;;;4928921;29;20020;-72
2022/05/29 06:47:19;;;;;;;5.53;1.70;;;16.00;68.50;;;;;;4947902;28;20085;-73
2022/05/29 06:49:48;;;;;;;4.60;1.33;;;15.90;68.20;;;;;;4938607;28;20240;-74
2022/05/29 06:52:15;;;;;;;3.75;1.95;;;16.00;68.30;;;;;;4935710;28;20506;-74
2022/05/29 06:54:41;;;;;;;6.43;1.75;;;16.00;68.40;;;;;;4946881;28;20098;-74
2022/05/29 06:57:07;;;;;;;5.03;1.65;;;16.30;68.20;;;;;;4943820;28;20024;-72
2022/05/29 07:08:15;;;;;;;5.70;1.77;;;16.20;67.50;;;;;;4923258;29;20043;-76
2022/05/29 07:10:41;;;;;;;7.88;3.42;;;16.10;68.30;;;;;;4937554;28;20054;-74
2022/05/29 07:13:06;;;;;;;12.93;6.55;;;16.10;68.40;;;;;;4936024;28;20147;-75
2022/05/29 07:15:32;;;;;;;10.77;4.07;;;16.20;67.80;;;;;;4945866;28;20694;-73
2022/05/29 07:17:58;;;;;;;19.38;9.88;;;16.20;67.90;;;;;;4949622;28;20039;-73
2022/05/29 07:20:24;;;;;;;25.50;10.85;;;16.10;67.90;;;;;;4940072;28;20042;-74
2022/05/29 07:22:50;;;;;;;13.18;6.15;;;16.20;67.80;;;;;;4936040;28;20031;-76
2022/05/29 07:25:15;;;;;;;5.40;2.05;;;16.50;67.60;;;;;;4943903;28;20480;-74
2022/05/29 07:27:41;;;;;;;5.72;2.30;;;16.60;66.40;;;;;;4944895;28;20035;-75
2022/05/29 07:30:07;;;;;;;6.55;2.42;;;16.60;66.50;;;;;;4935581;28;20062;-75
2022/05/29 07:32:33;;;;;;;36.83;16.40;;;16.70;66.10;;;;;;4935306;28;20040;-75
2022/05/29 07:34:59;;;;;;;6.75;3.95;;;17.00;64.60;;;;;;4949042;28;20033;-75
2022/05/29 07:37:26;;;;;;;8.75;3.15;;;17.10;63.70;;;;;;4947942;28;20500;-75
2022/05/29 07:39:53;;;;;;;7.10;2.40;;;17.30;64.10;;;;;;4924559;28;20122;-74
2022/05/29 07:45:07;;;;;;;3.85;1.30;;;17.40;63.00;;;;;;4922621;28;20047;-74
2022/05/29 07:47:40;;;;;;;6.38;1.70;;;17.40;61.30;;;;;;4945506;28;20443;-73
2022/05/29 07:50:09;;;;;;;7.28;1.80;;;17.60;60.90;;;;;;4935259;28;20714;-75
2022/05/29 07:52:35;;;;;;;6.97;1.80;;;17.90;60.50;;;;;;4937629;28;20050;-75
2022/05/29 07:55:01;;;;;;;6.15;1.50;;;17.90;59.30;;;;;;4939209;28;20018;-75
2022/05/29 07:57:26;;;;;;;4.07;1.40;;;17.80;59.70;;;;;;4942955;28;20104;-75
2022/05/29 07:59:52;;;;;;;5.35;1.30;;;17.60;60.30;;;;;;4948223;28;20066;-76
2022/05/29 08:02:18;;;;;;;4.88;1.92;;;17.30;61.30;;;;;;4940515;28;20035;-76
2022/05/29 08:04:45;;;;;;;4.50;1.55;;;16.90;62.10;;;;;;4945471;28;20487;-75
2022/05/29 08:07:16;;;;;;;6.15;1.90;;;16.70;62.60;;;;;;4940225;28;20031;-75
2022/05/29 08:09:42;;;;;;;6.13;2.38;;;16.60;63.90;;;;;;4942097;28;20064;-75
2022/05/29 08:12:08;;;;;;;9.90;3.15;;;17.00;64.50;;;;;;4945430;28;20031;-70
2022/05/29 08:14:34;;;;;;;6.70;1.70;;;17.50;61.40;;;;;;4962054;28;20098;-74
2022/05/29 08:17:00;;;;;;;5.07;1.40;;;17.50;60.90;;;;;;4952426;28;20570;-75
2022/05/29 08:19:26;;;;;;;5.25;1.75;;;17.20;61.60;;;;;;4945407;28;20061;-75
2022/05/29 08:21:52;;;;;;;4.55;1.33;;;16.80;64.00;;;;;;4945718;28;20155;-75
2022/05/29 08:32:31;;;;;;;4.22;1.50;;;16.30;67.50;;;;;;4949056;28;20023;-75
2022/05/29 08:34:57;;;;;;;6.93;1.90;;;16.50;67.10;;;;;;4947663;28;20062;-75
2022/05/29 08:37:23;;;;;;;6.28;1.35;;;16.60;66.60;;;;;;4942422;28;20111;-75
2022/05/29 08:39:48;;;;;;;8.10;2.05;;;16.60;66.00;;;;;;4946001;28;20487;-75
2022/05/29 08:42:18;;;;;;;9.98;3.72;;;16.40;64.20;;;;;;4948315;28;20075;-75
2022/05/29 08:44:47;;;;;;;12.40;6.50;;;16.30;65.80;;;;;;4947721;28;20038;-75
2022/05/29 08:47:15;;;;;;;7.43;1.90;;;16.60;66.00;;;;;;4947797;28;20079;-75
2022/05/29 08:49:47;;;;;;;13.88;8.13;;;17.00;63.90;;;;;;4949324;28;20112;-75
2022/05/29 08:52:23;;;;;;;5.05;2.13;;;17.50;63.20;;;;;;4939866;28;20087;-76
2022/05/29 08:55:00;;;;;;;3.08;2.20;;;18.20;63.10;;;;;;4921639;28;20035;-75
2022/05/29 08:57:43;;;;;;;6.07;1.80;;;18.60;59.70;;;;;;4939242;28;20054;-76
2022/05/29 09:00:21;;;;;;;6.13;1.70;;;19.00;57.30;;;;;;4936953;28;20054;-76
2022/05/29 09:03:01;;;;;;;4.15;1.52;;;19.30;56.70;;;;;;4948813;28;20035;-76
2022/05/29 09:05:32;;;;;;;9.32;1.88;;;18.90;57.00;;;;;;4946645;28;20031;-76
2022/05/29 09:08:06;;;;;;;5.10;1.63;;;18.50;59.20;;;;;;4936156;28;20040;-75
2022/05/29 09:10:43;;;;;;;6.40;1.60;;;18.00;61.30;;;;;;4936915;28;20684;-75
2022/05/29 09:13:19;;;;;;;6.13;1.75;;;17.60;64.90;;;;;;4931822;28;20480;-74
2022/05/29 09:15:50;;;;;;;4.47;1.63;;;17.10;67.60;;;;;;4948295;28;20493;-70
2022/05/29 09:18:30;;;;;;;6.20;1.85;;;16.60;70.10;;;;;;4943624;28;20028;-74
2022/05/29 09:21:16;;;;;;;3.00;1.55;;;16.10;72.20;;;;;;4940941;28;20114;-70
2022/05/29 09:24:09;;;;;;;2.88;1.65;;;15.90;74.10;;;;;;4945472;28;20101;-74
2022/05/29 09:26:37;;;;;;;5.10;1.95;;;15.80;75.70;;;;;;4946224;28;20034;-75
2022/05/29 09:29:05;;;;;;;4.25;1.50;;;15.90;76.00;;;;;;4945043;28;20038;-77
2022/05/29 09:31:32;;;;;;;4.85;1.77;;;15.80;76.20;;;;;;4944141;28;20031;-70
2022/05/29 09:33:59;;;;;;;3.90;1.40;;;15.80;76.90;;;;;;4944158;28;20081;-73
2022/05/29 09:36:29;;;;;;;4.28;1.20;;;15.80;77.50;;;;;;4942056;28;20044;-72
2022/05/29 09:39:19;;;;;;;2.53;1.38;;;15.90;76.20;;;;;;4940196;28;20850;-70
2022/05/29 09:41:50;;;;;;;5.70;1.40;;;16.20;74.30;;;;;;4940899;28;20935;-76
2022/05/29 09:44:23;;;;;;;5.10;1.10;;;16.70;73.40;;;;;;4931503;28;20031;-72
2022/05/29 09:46:51;;;;;;;5.07;1.40;;;17.10;69.50;;;;;;4944267;28;20035;-74
2022/05/29 09:49:42;;;;;;;4.75;1.33;;;17.40;68.30;;;;;;4947566;28;20532;-74
2022/05/29 09:52:37;;;;;;;6.50;1.88;;;17.70;66.50;;;;;;4944056;28;20492;-74
2022/05/29 09:55:31;;;;;;;4.68;1.88;;;17.90;65.10;;;;;;4937384;28;20071;-73
2022/05/29 09:58:03;;;;;;;5.45;1.52;;;18.00;64.60;;;;;;4941341;28;20460;-71
2022/05/29 10:00:36;;;;;;;3.65;1.50;;;17.90;63.60;;;;;;4949343;28;20039;-73
2022/05/29 10:03:09;;;;;;;6.20;1.77;;;17.70;63.20;;;;;;4938420;28;20035;-73
2022/05/29 10:05:40;;;;;;;4.97;1.90;;;17.50;65.00;;;;;;4944598;28;20031;-73
2022/05/29 10:08:25;;;;;;;3.38;1.55;;;17.40;64.00;;;;;;4940095;28;20039;-73
2022/05/29 10:10:50;;;;;;;5.15;1.83;;;17.10;67.60;;;;;;4946919;28;20031;-73
2022/05/29 10:13:35;;;;;;;4.22;1.10;;;16.80;67.20;;;;;;4948582;28;20028;-72
2022/05/29 10:16:01;;;;;;;2.42;0.88;;;16.40;67.20;;;;;;4937306;28;20158;-75
2022/05/29 10:18:38;;;;;;;2.78;1.10;;;16.00;67.90;;;;;;4944796;28;20036;-73
2022/05/29 10:21:24;;;;;;;1.45;0.80;;;15.70;69.70;;;;;;4942539;28;20546;-71
2022/05/29 10:23:53;;;;;;;1.23;1.02;;;15.50;70.50;;;;;;4946728;28;20031;-71
2022/05/29 10:26:29;;;;;;;2.65;0.77;;;15.50;70.70;;;;;;4933491;28;20143;-72
2022/05/29 10:28:55;;;;;;;;;;;15.60;71.80;;;;;;4934223;28;20702;-71
2022/05/29 10:31:26;;;;;;;2.53;0.87;;;15.90;71.60;;;;;;4946186;28;19910;-73
2022/05/29 10:34:04;;;;;;;1.45;0.65;;;16.20;69.50;;;;;;4938146;28;20534;-73
2022/05/29 10:36:30;;;;;;;1.42;0.52;;;16.30;66.70;;;;;;4945241;28;20035;-72
2022/05/29 10:39:23;;;;;;;1.58;0.73;;;16.50;65.60;;;;;;4942880;28;20039;-72
2022/05/29 10:41:51;;;;;;;1.50;0.90;;;16.80;64.20;;;;;;4921458;28;20482;-72
2022/05/29 10:44:46;;;;;;;1.05;0.40;;;17.10;62.80;;;;;;4927600;28;20138;-75
2022/05/29 10:47:28;;;;;;;1.00;0.90;;;17.90;60.10;;;;;;4936692;28;20455;-74
2022/05/29 10:50:00;;;;;;;2.35;0.85;;;19.00;57.70;;;;;;4934318;28;20027;-74
2022/05/29 10:52:51;;;;;;;2.40;0.80;;;19.90;55.60;;;;;;4949785;28;20038;-74
2022/05/29 10:55:32;;;;;;;2.75;0.90;;;20.50;53.50;;;;;;4940947;28;20027;-74
2022/05/29 10:58:16;;;;;;;1.35;0.63;;;20.60;54.10;;;;;;4936237;28;20039;-74
2022/05/29 11:03:17;;;;;;;1.50;0.80;;;20.70;54.10;;;;;;4940791;28;20027;-75
2022/05/29 11:04:14;;;;;;;7.15;0.90;;;20.50;54.90;;;;;;4948587;28;20094;-74
2022/05/29 11:07:22;;;;;;;2.85;1.17;;;20.10;56.60;;;;;;4951679;28;20030;-74
2022/05/29 11:09:56;;;;;;;1.02;0.70;;;19.70;58.00;;;;;;4894755;29;20023;-74
2022/05/29 11:12:45;;;;;;;1.40;0.60;;;19.60;59.30;;;;;;4940984;28;20043;-74
2022/05/29 11:15:20;;;;;;;1.17;0.52;;;19.50;57.90;;;;;;4942047;28;20086;-69
2022/05/29 11:18:06;;;;;;;2.78;0.70;;;19.50;58.90;;;;;;4937842;28;20027;-74
2022/05/29 11:20:41;;;;;;;2.25;0.60;;;19.30;57.60;;;;;;4938630;28;20581;-74
2022/05/29 11:23:44;;;;;;;1.63;0.88;;;18.90;57.90;;;;;;4940179;28;20166;-73
2022/05/29 11:26:42;;;;;;;0.40;0.40;;;18.70;59.20;;;;;;4939614;28;20484;-73
2022/05/29 11:29:42;;;;;;;2.28;0.75;;;18.30;57.30;;;;;;4938615;28;20082;-74
2022/05/29 11:32:41;;;;;;;2.15;0.90;;;18.10;58.50;;;;;;4943244;28;20039;-74
2022/05/29 11:35:20;;;;;;;4.25;0.90;;;18.10;60.00;;;;;;4932535;28;20204;-74
2022/05/29 11:37:55;;;;;;;2.55;1.20;;;18.10;59.00;;;;;;4936562;28;20679;-74
2022/05/29 11:40:29;;;;;;;2.30;0.77;;;18.20;59.90;;;;;;4928533;28;20034;-73
2022/05/29 11:43:04;;;;;;;3.08;0.90;;;18.30;59.80;;;;;;4934881;28;20042;-71
2022/05/29 11:51:46;;;;;;;2.85;1.10;;;18.30;59.90;;;;;;4941194;28;20129;-76
2022/05/29 11:54:19;;;;;;;4.15;1.10;;;18.30;60.20;;;;;;4938619;28;20034;-76
2022/05/29 11:56:51;;;;;;;5.60;1.50;;;18.20;60.60;;;;;;4945813;28;20066;-76
2022/05/29 11:59:38;;;;;;;2.88;1.00;;;18.00;60.80;;;;;;4941053;28;20480;-75
2022/05/29 12:02:21;;;;;;;2.92;1.02;;;17.40;63.80;;;;;;4938417;28;20034;-72
2022/05/29 12:05:09;;;;;;;3.13;1.52;;;16.90;68.90;;;;;;4943517;28;20024;-76
2022/05/29 12:07:46;;;;;;;4.53;1.70;;;16.60;72.40;;;;;;4945606;28;20033;-73
2022/05/29 12:10:23;;;;;;;4.18;1.85;;;16.10;75.40;;;;;;4937165;28;20126;-73
2022/05/29 12:13:08;;;;;;;5.35;1.30;;;15.80;78.30;;;;;;4941688;28;20046;-73
2022/05/29 12:15:35;;;;;;;5.00;1.88;;;15.50;79.10;;;;;;4923523;28;20024;-73
2022/05/29 12:18:06;;;;;;;4.20;1.52;;;15.40;81.40;;;;;;4933914;28;20043;-73
2022/05/29 12:20:43;;;;;;;2.75;1.70;;;15.30;82.40;;;;;;4939069;28;20085;-74
2022/05/29 12:32:32;;;;;;;4.45;1.08;;;15.80;82.80;;;;;;4990979;28;20096;-74
2022/05/29 12:35:17;;;;;;;3.95;1.42;;;16.50;80.60;;;;;;4998067;28;20132;-74
2022/05/29 12:37:48;;;;;;;3.97;1.25;;;17.00;79.20;;;;;;4988171;28;20026;-75
2022/05/29 12:40:43;;;;;;;2.88;0.95;;;17.40;76.80;;;;;;4989146;28;20037;-74
2022/05/29 12:43:27;;;;;;;2.38;0.85;;;17.70;72.50;;;;;;4970301;28;20149;-74
2022/05/29 12:46:01;;;;;;;2.50;1.40;;;17.90;71.00;;;;;;4958453;28;20030;-75
2022/05/29 12:48:27;;;;;;;1.30;0.70;;;18.10;72.10;;;;;;4987894;28;20454;-74
2022/05/29 12:51:20;;;;;;;1.70;0.60;;;18.20;69.40;;;;;;4988678;28;20030;-74
2022/05/29 12:53:58;;;;;;;1.48;0.80;;;18.50;66.70;;;;;;4991677;28;20088;-74
2022/05/29 12:56:47;;;;;;;2.42;0.90;;;18.70;67.60;;;;;;4996411;28;20218;-74
2022/05/29 12:59:38;;;;;;;3.15;0.80;;;18.90;68.50;;;;;;4991080;28;20073;-75
2022/05/29 13:02:06;;;;;;;2.13;0.80;;;18.80;65.30;;;;;;4990338;28;20076;-75
2022/05/29 13:04:37;;;;;;;2.30;0.80;;;18.80;62.20;;;;;;4995822;28;20130;-75
2022/05/29 13:07:33;;;;;;;1.10;0.63;;;18.70;62.20;;;;;;4994719;28;20025;-74
2022/05/29 13:10:28;;;;;;;5.35;1.00;;;18.20;61.00;;;;;;4977256;28;20498;-74
2022/05/29 13:13:21;;;;;;;3.25;1.15;;;17.40;65.70;;;;;;4995966;28;20046;-74
2022/05/29 13:15:48;;;;;;;2.85;0.80;;;16.90;67.40;;;;;;4994083;28;20033;-75
2022/05/29 13:21:20;;;;;;;1.98;0.85;;;16.30;68.10;;;;;;4990026;28;20026;-74
2022/05/29 13:23:50;;;;;;;3.75;1.08;;;16.20;70.60;;;;;;4993335;28;20049;-75
2022/05/29 13:26:20;;;;;;;3.00;1.20;;;16.30;70.40;;;;;;4994117;28;20034;-74
2022/05/29 13:29:09;;;;;;;2.17;0.93;;;16.30;71.00;;;;;;4998708;28;20069;-75
2022/05/29 13:32:12;;;;;;;3.03;1.00;;;16.30;69.70;;;;;;4991365;28;20710;-75
2022/05/29 13:34:44;;;;;;;3.55;1.05;;;16.30;71.30;;;;;;4981531;28;20089;-74
2022/05/29 13:37:47;;;;;;;2.50;0.93;;;16.40;71.10;;;;;;4996208;28;20555;-75
2022/05/29 13:40:31;;;;;;;2.95;1.13;;;16.30;70.30;;;;;;4995337;28;20060;-74
2022/05/29 13:43:16;;;;;;;3.63;1.23;;;16.20;71.70;;;;;;4997688;28;20021;-75
2022/05/29 13:45:42;;;;;;;4.72;1.50;;;16.10;74.10;;;;;;4990328;28;20028;-75
2022/05/29 13:48:23;;;;;;;2.35;1.20;;;16.10;75.20;;;;;;4993239;28;20526;-75
2022/05/29 13:50:52;;;;;;;3.95;1.20;;;16.30;74.90;;;;;;4995760;28;20034;-75
2022/05/29 13:53:24;;;;;;;3.78;1.27;;;16.30;74.90;;;;;;4978168;28;20052;-74
2022/05/29 13:56:11;;;;;;;4.13;1.60;;;16.40;75.30;;;;;;4991822;28;20527;-74
2022/05/29 14:04:47;;;;;;;6.35;1.83;;;16.90;74.50;;;;;;4992747;28;20042;-75
2022/05/29 14:07:31;;;;;;;7.28;4.10;;;17.00;72.90;;;;;;4990364;28;20044;-74
2022/05/29 14:10:07;;;;;;;5.53;1.75;;;16.90;72.30;;;;;;4970046;28;20038;-74
2022/05/29 14:12:50;;;;;;;2.70;1.33;;;16.90;70.70;;;;;;4994651;28;20034;-74
2022/05/29 14:15:37;;;;;;;6.30;1.58;;;17.10;70.80;;;;;;4993732;28;20038;-74